Time;durP1;ratioP1;P1;durP2;ratioP2;P2;SDS_P1;SDS_P2;PMS_P1;PMS_P2;Temp;Humidity;BMP_temperature;BMP_pressure;BME280_temperature;BME280_humidity;BME280_pressure;Samples;Min_cycle;Max_cycle;Signal;HPM_P1;HPM_P2
2022/04/20 00:02:01;;;;;;;16.63;9.30;;;;;;;2.34;100.00;61055.13;5112355;28;20441;-72
2022/04/20 00:04:29;;;;;;;15.47;9.07;;;;;;;2.30;100.00;61055.91;5112182;28;20437;-72
2022/04/20 00:06:57;;;;;;;12.53;8.07;;;;;;;2.44;100.00;61065.75;5112184;28;20514;-72
2022/04/20 00:09:24;;;;;;;17.03;8.73;;;;;;;2.50;100.00;61069.59;5112351;28;20485;-72
2022/04/20 00:11:52;;;;;;;20.93;8.13;;;;;;;2.56;100.00;61076.50;5112230;28;20501;-71
2022/04/20 00:14:20;;;;;;;13.23;8.20;;;;;;;1.78;100.00;60998.72;5112161;28;20436;-71
2022/04/20 00:16:47;;;;;;;13.67;7.87;;;;;;;2.59;100.00;61084.22;5111541;28;20449;-72
2022/04/20 00:19:14;;;;;;;12.50;7.63;;;;;;;2.53;100.00;61073.34;5112030;28;20476;-71
2022/04/20 00:21:41;;;;;;;11.57;7.77;;;;;;;2.57;100.00;61077.06;5109152;28;20457;-71
2022/04/20 00:24:08;;;;;;;11.60;7.77;;;;;;;2.42;100.00;61066.66;5107092;28;20889;-72
2022/04/20 00:26:35;;;;;;;11.67;8.03;;;;;;;2.44;100.00;61066.28;5111802;28;20452;-72
2022/04/20 00:29:03;;;;;;;11.77;8.13;;;;;;;2.56;100.00;61081.53;5112008;28;20545;-73
2022/04/20 00:31:30;;;;;;;11.70;7.87;;;;;;;2.44;100.00;61063.78;5112062;28;20486;-72
2022/04/20 00:33:57;;;;;;;14.10;8.50;;;;;;;2.55;100.00;61079.97;5112135;28;20448;-72
2022/04/20 00:36:24;;;;;;;10.73;8.07;;;;;;;2.43;100.00;61062.72;5111918;28;20506;-71
2022/04/20 00:38:50;;;;;;;13.20;8.00;;;;;;;2.36;100.00;61060.31;5111891;28;20478;-71
2022/04/20 00:41:17;;;;;;;11.67;8.03;;;;;;;2.42;100.00;61066.66;5111602;28;20529;-71
2022/04/20 00:43:44;;;;;;;12.50;8.17;;;;;;;2.48;100.00;61068.03;5111856;28;20444;-70
2022/04/20 00:46:13;;;;;;;10.20;7.63;;;;;;;2.37;100.00;61058.84;5112339;28;20437;-72
2022/04/20 00:48:41;;;;;;;13.70;8.20;;;;;;;2.22;100.00;61042.91;5111975;28;20464;-74
2022/04/20 00:51:08;;;;;;;11.70;7.60;;;;;;;2.26;100.00;61049.69;5111913;28;20506;-72
2022/04/20 00:53:36;;;;;;;11.13;7.77;;;;;;;2.43;100.00;61072.78;5111528;28;20461;-71
2022/04/20 00:56:03;;;;;;;11.63;7.97;;;;;;;2.48;100.00;61070.53;5111610;28;20445;-71
2022/04/20 00:58:29;;;;;;;12.30;8.17;;;;;;;2.60;100.00;61087.25;5111750;28;20843;-73
2022/04/20 01:00:56;;;;;;;10.87;7.83;;;;;;;2.54;100.00;61074.38;5111552;28;20485;-71
2022/04/20 01:03:26;;;;;;;12.93;8.63;;;;;;;2.60;100.00;61082.22;5111697;28;20517;-71
2022/04/20 01:05:52;;;;;;;11.60;7.70;;;;;;;2.53;100.00;61073.34;5111667;28;20437;-71
2022/04/20 01:08:19;;;;;;;14.83;8.67;;;;;;;2.64;100.00;61089.00;5111623;28;20881;-71
2022/04/20 01:10:46;;;;;;;14.60;9.83;;;;;;;2.50;100.00;61075.16;5111470;28;20437;-72
2022/04/20 01:13:13;;;;;;;15.20;8.50;;;;;;;2.56;100.00;61079.03;5111631;28;20525;-72
2022/04/20 01:15:40;;;;;;;10.97;7.90;;;;;;;2.70;100.00;61095.88;5111589;28;20448;-72
2022/04/20 01:18:12;;;;;;;19.07;8.47;;;;;;;2.69;100.00;61089.25;5111076;28;20469;-72
2022/04/20 01:20:40;;;;;;;13.30;8.17;;;;;;;2.72;100.00;61097.50;5111191;28;20600;-72
2022/04/20 01:23:07;;;;;;;14.57;7.70;;;;;;;2.31;100.00;61049.44;5111310;28;20453;-71
2022/04/20 01:25:35;;;;;;;12.77;8.47;;;;;;;2.27;100.00;61050.75;5111281;28;20437;-72
2022/04/20 01:28:03;;;;;;;10.03;7.47;;;;;;;2.27;100.00;61053.25;5111663;28;20439;-72
2022/04/20 01:30:30;;;;;;;11.83;7.80;;;;;;;1.75;100.00;60995.53;5115034;28;20469;-71
2022/04/20 01:32:57;;;;;;;11.17;8.27;;;;;;;1.79;100.00;60997.28;5115443;28;20497;-71
2022/04/20 01:35:24;;;;;;;13.80;8.63;;;;;;;2.07;100.00;61026.47;5114999;28;20433;-71
2022/04/20 01:37:53;;;;;;;13.50;8.30;;;;;;;2.14;100.00;61036.94;5115386;28;20818;-72
2022/04/20 01:40:20;;;;;;;13.03;8.13;;;;;;;2.12;100.00;61032.28;5114834;28;20476;-73
2022/04/20 01:42:46;;;;;;;22.70;15.83;;;;;;;2.05;100.00;61021.81;5115196;28;20488;-72
2022/04/20 01:45:13;;;;;;;31.37;20.63;;;;;;;2.03;100.00;61022.75;5114907;28;20867;-72
2022/04/20 01:47:40;;;;;;;28.20;17.50;;;;;;;2.11;100.00;61028.72;5114862;28;20498;-71
2022/04/20 01:50:09;;;;;;;18.63;12.20;;;;;;;2.13;100.00;61032.84;5114985;28;20445;-72
2022/04/20 01:52:36;;;;;;;16.67;10.03;;;;;;;2.05;100.00;61027.38;5114723;28;20456;-73
2022/04/20 01:55:04;;;;;;;15.20;10.57;;;;;;;2.17;100.00;61037.63;5114893;28;20445;-71
2022/04/20 01:57:31;;;;;;;17.03;10.87;;;;;;;2.02;100.00;61021.69;5114587;28;20436;-72
2022/04/20 01:59:58;;;;;;;17.47;10.33;;;;;;;2.08;100.00;61028.06;5114842;28;20479;-71
2022/04/20 02:02:36;;;;;;;18.47;13.00;;;;;;;1.70;100.00;60987.72;5114632;28;20935;-72
2022/04/20 02:05:04;;;;;;;18.93;10.90;;;;;;;2.02;100.00;61019.16;5115056;28;20981;-71
2022/04/20 02:07:31;;;;;;;22.77;11.47;;;;;;;1.64;100.00;60986.38;5114512;28;20865;-73
2022/04/20 02:09:58;;;;;;;16.97;11.03;;;;;;;1.70;100.00;60995.25;5114479;28;21047;-72
2022/04/20 02:12:27;;;;;;;26.13;11.20;;;;;;;2.06;100.00;61023.41;5114578;28;20526;-71
2022/04/20 02:14:54;;;;;;;21.87;12.97;;;;;;;1.97;100.00;61018.91;5114508;28;20441;-71
2022/04/20 02:17:22;;;;;;;22.10;14.00;;;;;;;2.10;100.00;61027.66;5114188;28;20555;-71
2022/04/20 02:19:49;;;;;;;24.87;14.90;;;;;;;2.06;100.00;61028.44;5114405;28;20501;-72
2022/04/20 02:22:17;;;;;;;23.00;13.53;;;;;;;2.00;100.00;61019.03;5114236;28;20436;-72
2022/04/20 02:24:44;;;;;;;21.17;13.07;;;;;;;2.02;100.00;61029.22;5114036;28;20942;-71
2022/04/20 02:27:11;;;;;;;24.20;14.00;;;;;;;2.18;100.00;61035.63;5114378;28;20451;-71
2022/04/20 02:29:40;;;;;;;28.57;15.43;;;;;;;2.29;100.00;61052.34;5114232;27;20533;-73
2022/04/20 02:32:08;;;;;;;20.87;13.13;;;;;;;1.94;100.00;61015.69;5114087;28;20440;-71
2022/04/20 02:34:35;;;;;;;26.37;13.73;;;;;;;2.03;100.00;61027.78;5113991;28;21012;-73
2022/04/20 02:37:04;;;;;;;22.27;13.53;;;;;;;2.16;100.00;61038.53;5114047;28;20440;-73
2022/04/20 02:39:30;;;;;;;23.37;13.43;;;;;;;2.03;100.00;61025.25;5113441;28;20444;-73
2022/04/20 02:41:58;;;;;;;21.90;12.60;;;;;;;2.00;100.00;61017.03;5113935;28;20441;-72
2022/04/20 02:44:25;;;;;;;24.07;13.37;;;;;;;2.19;100.00;61042.25;5113836;28;20448;-72
2022/04/20 02:46:53;;;;;;;23.40;13.03;;;;;;;2.18;100.00;61041.19;5114036;28;20445;-72
2022/04/20 02:49:21;;;;;;;21.57;12.83;;;;;;;1.86;100.00;61006.66;5114006;28;20437;-71
2022/04/20 02:51:47;;;;;;;28.00;13.77;;;;;;;1.94;100.00;61018.22;5113909;28;20440;-72
2022/04/20 02:54:14;;;;;;;25.60;14.27;;;;;;;1.74;100.00;60994.47;5113794;28;20490;-72
2022/04/20 02:56:41;;;;;;;27.00;14.90;;;;;;;1.87;100.00;61005.22;5113474;28;20498;-72
2022/04/20 02:59:08;;;;;;;29.17;13.90;;;;;;;1.69;100.00;60989.16;5113489;28;21018;-72
2022/04/20 03:01:35;;;;;;;29.70;15.70;;;;;;;1.83;100.00;60996.50;5113270;28;20935;-73
2022/04/20 03:04:05;;;;;;;26.77;14.33;;;;;;;1.79;100.00;61002.28;5113455;28;20471;-71
2022/04/20 03:06:32;;;;;;;29.70;14.97;;;;;;;1.70;100.00;60990.22;5113358;28;21000;-72
2022/04/20 03:08:59;;;;;;;27.63;16.20;;;;;;;1.38;100.00;60951.25;5113394;28;20441;-72
2022/04/20 03:11:26;;;;;;;27.03;14.13;;;;;;;1.58;100.00;60977.47;5112779;28;20542;-72
2022/04/20 03:13:54;;;;;;;25.90;13.83;;;;;;;1.75;100.00;60995.53;5114273;28;20468;-73
2022/04/20 03:16:20;;;;;;;25.73;13.77;;;;;;;1.75;100.00;60995.53;5114834;28;20490;-72
2022/04/20 03:18:48;;;;;;;24.47;13.37;;;;;;;1.78;100.00;60998.19;5114917;28;20464;-71
2022/04/20 03:21:17;;;;;;;24.53;14.27;;;;;;;1.49;100.00;60965.94;5113196;28;20480;-72
2022/04/20 03:23:43;;;;;;;22.33;13.83;;;;;;;1.56;100.00;60970.34;5113137;28;20472;-72
2022/04/20 03:26:10;;;;;;;33.30;15.80;;;;;;;1.68;100.00;60983.06;5113345;28;20449;-70
2022/04/20 03:28:38;;;;;;;24.57;14.17;;;;;;;1.56;100.00;60975.38;5113046;28;20505;-72
2022/04/20 03:31:06;;;;;;;26.83;14.97;;;;;;;1.73;100.00;60990.38;5112877;28;20466;-71
2022/04/20 03:33:32;;;;;;;21.83;13.40;;;;;;;1.77;100.00;60997.66;5112961;28;20428;-73
2022/04/20 03:36:00;;;;;;;25.50;14.07;;;;;;;1.72;100.00;60992.34;5113009;28;20436;-71
2022/04/20 03:38:28;;;;;;;25.40;14.00;;;;;;;2.00;100.00;61022.06;5112614;28;20447;-72
2022/04/20 03:40:56;;;;;;;25.30;13.73;;;;;;;1.83;100.00;61006.53;5112900;28;20784;-72
2022/04/20 03:43:23;;;;;;;30.13;15.23;;;;;;;1.61;100.00;60975.66;5112883;28;20440;-71
2022/04/20 03:45:50;;;;;;;26.37;15.43;;;;;;;1.63;100.00;60980.81;5112731;28;20474;-73
2022/04/20 03:48:17;;;;;;;32.17;18.47;;;;;;;1.41;100.00;60959.97;5112721;28;20451;-72
2022/04/20 03:50:44;;;;;;;29.27;14.97;;;;;;;1.71;100.00;60991.28;5111819;28;20936;-72
2022/04/20 03:53:11;;;;;;;24.87;14.33;;;;;;;1.76;100.00;60993.53;5112778;28;20896;-72
2022/04/20 03:55:40;;;;;;;28.57;14.63;;;;;;;1.61;100.00;60980.69;5112598;28;20441;-72
2022/04/20 03:58:07;;;;;;;26.70;13.70;;;;;;;1.67;100.00;60987.56;5112383;28;20847;-72
2022/04/20 04:00:34;;;;;;;24.33;14.17;;;;;;;1.72;100.00;60992.34;5112469;28;21008;-72
2022/04/20 04:03:00;;;;;;;26.53;13.73;;;;;;;1.80;100.00;61000.31;5112363;28;20943;-73
2022/04/20 04:05:27;;;;;;;30.10;14.67;;;;;;;1.80;100.00;61000.31;5112040;28;20441;-72
2022/04/20 04:07:55;;;;;;;24.67;13.57;;;;;;;1.80;100.00;61000.84;5112215;28;20451;-72
2022/04/20 04:10:22;;;;;;;24.70;13.73;;;;;;;1.77;100.00;60995.16;5112579;28;20452;-72
2022/04/20 04:12:50;;;;;;;27.43;14.77;;;;;;;1.73;100.00;60993.41;5112340;28;20453;-71
2022/04/20 04:15:17;;;;;;;29.40;15.70;;;;;;;1.85;100.00;61005.63;5112295;28;20949;-71
2022/04/20 04:17:44;;;;;;;28.80;14.83;;;;;;;2.10;100.00;61030.16;5112129;28;20518;-71
2022/04/20 04:20:11;;;;;;;32.43;14.43;;;;;;;2.05;100.00;61024.88;5112062;28;20513;-70
2022/04/20 04:22:38;;;;;;;33.43;14.67;;;;;;;1.82;100.00;61002.97;5112029;28;20452;-74
2022/04/20 04:25:06;;;;;;;32.23;15.80;;;;;;;2.32;100.00;61055.50;5112061;28;20540;-72
2022/04/20 04:27:33;;;;;;;28.23;14.77;;;;;;;2.45;100.00;61069.88;5111903;28;20445;-73
2022/04/20 04:30:02;;;;;;;28.27;15.57;;;;;;;2.54;100.00;61079.41;5112154;28;20472;-70
2022/04/20 04:32:29;;;;;;;23.23;14.73;;;;;;;2.11;100.00;61033.75;5111369;28;20437;-71
2022/04/20 04:34:56;;;;;;;25.50;15.50;;;;;;;2.50;100.00;61077.69;5111902;28;20444;-71
2022/04/20 04:37:23;;;;;;;25.50;15.93;;;;;;;2.29;100.00;61052.34;5112056;28;20440;-72
2022/04/20 04:39:51;;;;;;;27.07;16.30;;;;;;;2.63;100.00;61085.41;5112015;28;20448;-73
2022/04/20 04:42:19;;;;;;;30.87;17.03;;;;;;;2.58;100.00;61080.63;5111653;28;20873;-72
2022/04/20 04:44:46;;;;;;;35.40;17.03;;;;;;;2.74;100.00;61099.63;5111618;28;20449;-72
2022/04/20 04:49:58;;;;;;;31.93;17.33;;;;;;;2.43;100.00;61062.72;5111946;28;20432;-72
2022/04/20 04:52:26;;;;;;;30.03;17.20;;;;;;;2.70;100.00;61093.38;5111843;28;20441;-72
2022/04/20 04:54:53;;;;;;;28.60;16.50;;;;;;;3.03;100.00;61130.97;5111536;28;20449;-72
2022/04/20 04:57:19;;;;;;;27.57;16.60;;;;;;;3.04;100.00;61134.00;5111500;28;20440;-72
2022/04/20 04:59:47;;;;;;;23.27;15.37;;;;;;;3.09;100.00;61137.34;5111420;28;20441;-73
2022/04/20 05:02:15;;;;;;;27.63;15.10;;;;;;;3.06;100.00;61134.13;5112065;28;20557;-72
2022/04/20 05:04:42;;;;;;;24.63;13.73;;;;;;;3.18;100.00;61146.91;5116000;28;20459;-72
2022/04/20 05:07:10;;;;;;;18.57;12.40;;;;;;;2.88;100.00;61109.47;5115729;28;20494;-72
2022/04/20 05:09:36;;;;;;;20.33;12.53;;;;;;;3.33;100.00;61164.84;5115611;28;20509;-73
2022/04/20 05:12:04;;;;;;;21.50;13.83;;;;;;;3.40;100.00;61169.78;5115332;28;20510;-72
2022/04/20 05:14:32;;;;;;;22.93;13.43;;;;;;;3.19;100.00;61147.44;5115538;28;20490;-72
2022/04/20 05:16:59;;;;;;;21.83;13.23;;;;;;;3.44;100.00;61169.50;5115335;28;20942;-72
2022/04/20 05:19:30;;;;;;;26.47;16.47;;;;;;;3.50;100.00;61180.41;5115521;28;20815;-73
2022/04/20 05:21:57;;;;;;;36.73;16.27;;;;;;;3.59;100.00;61187.44;5115600;28;20480;-72
2022/04/20 05:24:24;;;;;;;23.80;15.23;;;;;;;3.69;100.00;61200.59;5115764;28;20456;-73
2022/04/20 05:26:51;;;;;;;23.53;14.63;;;;;;;3.79;100.00;61208.72;5115239;28;21020;-72
2022/04/20 05:29:19;;;;;;;24.87;13.47;;;;;;;3.71;100.00;61202.72;5115358;28;20575;-73
2022/04/20 05:31:46;;;;;;;25.00;13.87;;;;;;;3.79;100.00;61208.72;5115266;28;20445;-71
2022/04/20 05:34:14;;;;;;;19.20;12.20;;;;;;;2.94;100.00;61120.88;5115367;28;20447;-72
2022/04/20 05:42:11;;;;;;;17.10;11.10;;;;;;;3.59;100.00;61184.41;5115260;28;20487;-73
2022/04/20 05:44:38;;;;;;;18.07;10.33;;;;;;;3.76;100.00;61208.06;5115040;28;20467;-73
2022/04/20 05:47:05;;;;;;;19.90;11.37;;;;;;;3.83;100.00;61209.91;5114845;28;20510;-71
2022/04/20 05:49:32;;;;;;;19.90;11.30;;;;;;;3.80;100.00;61212.31;5114802;28;20497;-72
2022/04/20 05:52:00;;;;;;;16.93;11.33;;;;;;;4.02;100.00;61230.69;5115247;28;20444;-73
2022/04/20 05:54:27;;;;;;;18.47;10.80;;;;;;;4.06;100.00;61239.97;5113772;28;20850;-72
2022/04/20 05:56:56;;;;;;;17.87;11.30;;;;;;;4.02;100.00;61235.19;5115234;28;20860;-73
2022/04/20 05:59:23;;;;;;;21.30;11.90;;;;;;;3.89;100.00;61221.88;5114901;28;20444;-73
2022/04/20 06:01:50;;;;;;;20.53;12.00;;;;;;;3.96;100.00;61226.81;5114856;28;20484;-72
2022/04/20 06:04:17;;;;;;;21.20;12.47;;;;;;;3.97;100.00;61230.38;5114921;28;20484;-72
2022/04/20 06:06:44;;;;;;;21.07;12.23;;;;;;;3.70;100.00;61201.69;5114886;28;20441;-71
2022/04/20 06:09:12;;;;;;;21.83;12.63;;;;;;;4.01;100.00;61234.09;5115069;28;20436;-71
2022/04/20 06:11:40;;;;;;;26.37;13.73;;;;;;;4.02;100.00;61233.19;5114872;28;20502;-71
2022/04/20 06:14:08;;;;;;;24.37;13.07;;;;;;;3.99;100.00;61227.47;5113587;28;20481;-71
2022/04/20 06:16:34;;;;;;;18.37;12.57;;;;;;;4.13;100.00;61247.41;5114405;28;20955;-72
2022/04/20 06:19:01;;;;;;;21.93;12.63;;;;;;;4.12;100.00;61245.81;5114651;28;20525;-74
2022/04/20 06:21:31;;;;;;;23.23;14.23;;;;;;;4.13;100.00;61242.38;5114409;28;20538;-72
2022/04/20 06:23:58;;;;;;;20.50;13.97;;;;;;;4.04;100.00;61232.81;5114505;28;20450;-72
2022/04/20 06:26:26;;;;;;;20.53;14.30;;;;;;;4.16;100.00;61245.56;5114306;28;20448;-73
2022/04/20 06:28:53;;;;;;;21.37;13.73;;;;;;;3.91;100.00;61229.03;5114372;28;20544;-73
2022/04/20 06:31:20;;;;;;;20.27;12.70;;;;;;;4.16;100.00;61248.09;5114118;28;20453;-72
2022/04/20 06:33:49;;;;;;;23.93;14.23;;;;;;;4.24;100.00;61259.13;5114167;28;20448;-72
2022/04/20 06:36:18;;;;;;;22.53;14.43;;;;;;;4.38;100.00;61270.44;5112952;28;20621;-73
2022/04/20 06:38:45;;;;;;;23.20;13.73;;;;;;;4.53;100.00;61286.41;5114135;28;20537;-74
2022/04/20 06:41:12;;;;;;;21.63;14.23;;;;;;;4.46;100.00;61278.94;5114117;28;21002;-74
2022/04/20 06:43:40;;;;;;;29.93;17.10;;;;;;;4.33;100.00;61268.16;5113750;28;20951;-73
2022/04/20 06:46:07;;;;;;;34.17;18.13;;;;;;;4.48;100.00;61281.09;5118847;28;20565;-73
2022/04/20 06:48:34;;;;;;;28.43;17.43;;;;;;;4.58;100.00;61291.72;5118944;28;20445;-72
2022/04/20 06:51:01;;;;;;;28.70;18.20;;;;;;;4.46;100.00;61281.47;5114624;28;20453;-72
2022/04/20 06:59:10;;;;;;;33.83;19.63;;;;;;;4.60;100.00;61296.38;5071264;28;20435;-72
2022/04/20 07:01:38;;;;;;;30.47;18.30;;;;;;;4.84;100.00;61321.94;5103524;27;21130;-71
2022/04/20 07:04:06;;;;;;;28.17;18.10;;;;;;;1.62;100.00;60976.72;5113571;28;20436;-72
2022/04/20 07:06:34;;;;;;;34.40;19.00;;;;;;;4.67;100.00;61301.84;5113579;28;20529;-72
2022/04/20 07:09:00;;;;;;;37.73;19.20;;;;;;;3.83;100.00;61214.97;5113460;28;20445;-72
2022/04/20 07:11:28;;;;;;;29.27;18.33;;;;;;;4.75;100.00;61302.78;5113394;28;20527;-71
2022/04/20 07:13:55;;;;;;;23.90;16.07;;;;;;;4.83;100.00;61318.34;5112246;28;20445;-73
2022/04/20 07:16:24;;;;;;;21.83;14.47;;;;;;;4.53;100.00;61286.41;5113171;28;20448;-72
2022/04/20 07:18:50;;;;;;;23.93;14.80;;;;;;;4.77;100.00;61314.50;5113152;28;20517;-71
2022/04/20 07:21:17;;;;;;;21.13;13.77;;;;;;;4.87;100.00;61322.63;5113300;28;20929;-71
2022/04/20 07:23:44;;;;;;;22.57;13.63;;;;;;;4.72;100.00;61309.16;5113032;28;20453;-73
2022/04/20 07:26:11;;;;;;;23.67;15.17;;;;;;;4.68;100.00;61302.91;5113280;28;20445;-72
2022/04/20 07:28:38;;;;;;;33.03;15.43;;;;;;;4.82;100.00;61319.81;5112933;28;20537;-72
2022/04/20 07:31:04;;;;;;;24.13;15.40;;;;;;;4.84;100.00;61321.94;5112836;28;20441;-72
2022/04/20 07:33:32;;;;;;;25.97;15.53;;;;;;;4.85;100.00;61323.00;5112618;28;21021;-72
2022/04/20 07:36:00;;;;;;;27.23;16.53;;;;;;;4.78;100.00;61318.06;5112757;28;20497;-71
2022/04/20 07:38:27;;;;;;;23.90;15.47;;;;;;;4.85;100.00;61323.53;5113042;28;20503;-72
2022/04/20 07:40:54;;;;;;;28.10;16.47;;;;;;;4.85;100.00;61320.50;5112747;28;20452;-72
2022/04/20 07:43:22;;;;;;;27.70;17.30;;;;;;;4.79;100.00;61314.09;5112653;28;20575;-73
2022/04/20 07:45:48;;;;;;;26.03;16.97;;;;;;;4.87;100.00;61322.63;5112418;28;20444;-73
2022/04/20 07:48:15;;;;;;;24.00;16.03;;;;;;;4.86;100.00;61324.06;5112629;28;20498;-73
2022/04/20 07:50:43;;;;;;;29.80;15.67;;;;;;;4.98;100.00;61331.81;5112495;28;20967;-71
2022/04/20 07:53:11;;;;;;;22.13;15.00;;;;;;;4.99;100.00;61335.41;5112774;28;20436;-71
2022/04/20 07:55:38;;;;;;;22.63;15.43;;;;;;;5.20;100.00;61354.69;5112697;28;20482;-73
2022/04/20 07:58:06;;;;;;;26.47;15.77;;;;;;;5.27;100.00;61367.75;5112502;28;20453;-72
2022/04/20 08:00:32;;;;;;;33.37;19.37;;;;;;;5.21;100.00;61356.31;5112264;28;20478;-71
2022/04/20 08:03:11;;;;;;;32.43;22.33;;;;;;;5.18;100.00;61358.16;5112453;28;20484;-73
2022/04/20 08:05:40;;;;;;;40.60;23.30;;;;;;;5.29;100.00;61364.28;5112155;28;20437;-75
2022/04/20 08:08:10;;;;;;;46.60;27.27;;;;;;;5.27;100.00;61367.75;5112124;28;20441;-73
2022/04/20 08:10:37;;;;;;;30.80;18.80;;;;;;;4.87;100.00;61325.13;5112299;28;20480;-73
2022/04/20 08:14:09;;;;;;;39.40;22.70;;;;;;;4.94;100.00;61333.13;5112220;28;21044;-74
2022/04/20 08:15:52;;;;;;;28.73;18.93;;;;;;;5.14;100.00;61353.88;5112308;28;20440;-73
2022/04/20 08:18:19;;;;;;;26.93;15.53;;;;;;;4.65;100.00;61297.19;5112842;28;20970;-72
2022/04/20 08:20:46;;;;;;;24.17;16.27;;;;;;;5.13;100.00;61347.78;5115824;28;20448;-73
2022/04/20 08:23:15;;;;;;;27.23;17.83;;;;;;;5.25;100.00;61360.56;5112384;28;20969;-73
2022/04/20 08:25:42;;;;;;;24.60;15.77;;;;;;;5.30;100.00;61365.88;5112153;28;21091;-72
2022/04/20 08:28:11;;;;;;;23.47;16.10;;;;;;;5.05;100.00;61341.78;5111505;28;20449;-72
2022/04/20 08:30:39;;;;;;;26.13;15.93;;;;;;;5.15;100.00;61349.91;5111757;28;20481;-73
2022/04/20 08:33:07;;;;;;;27.07;17.13;;;;;;;5.38;100.00;61379.47;5112059;28;20536;-73
2022/04/20 08:35:34;;;;;;;25.63;17.37;;;;;;;5.41;100.00;61380.13;5111949;28;20846;-73
2022/04/20 08:38:01;;;;;;;29.00;18.10;;;;;;;5.57;100.00;61399.19;5111513;28;20444;-73
2022/04/20 08:40:30;;;;;;;29.47;17.57;;;;;;;5.04;100.00;61340.72;5111684;28;20959;-74
2022/04/20 08:43:03;;;;;;;26.40;17.47;;;;;;;5.77;100.00;61418.50;5111764;28;20488;-73
2022/04/20 08:45:32;;;;;;;27.60;17.87;;;;;;;5.66;100.00;61406.78;5112148;28;20436;-74
2022/04/20 08:48:00;;;;;;;25.47;16.40;;;;;;;5.47;100.00;61386.53;5112033;28;20449;-73
2022/04/20 08:50:28;;;;;;;30.77;17.80;;;;;;;5.79;100.00;61418.13;5111700;28;20441;-72
2022/04/20 08:52:58;;;;;;;35.20;19.27;;;;;;;5.90;100.00;61434.91;5111456;28;20498;-73
2022/04/20 08:55:25;;;;;;;25.87;17.10;;;;;;;5.98;100.00;61443.44;5111664;28;20439;-74
2022/04/20 08:57:54;;;;;;;33.43;20.10;;;;;;;6.05;100.00;61447.31;5111837;28;20478;-73
2022/04/20 09:00:25;;;;;;;32.17;19.03;;;;;;;5.74;100.00;61414.75;5111750;28;20530;-71
2022/04/20 09:02:54;;;;;;;28.07;17.73;;;;;;;5.79;100.00;61418.13;5111617;28;20512;-71
2022/04/20 09:05:21;;;;;;;29.77;19.83;;;;;;;5.99;100.00;61443.97;5111715;28;20437;-73
2022/04/20 09:07:48;;;;;;;31.73;20.20;;;;;;;5.81;100.00;61425.31;5111210;28;20535;-73
2022/04/20 09:10:16;;;;;;;26.83;18.50;;;;;;;5.53;100.00;61392.94;5113828;28;20440;-72
2022/04/20 09:12:45;;;;;;;30.33;20.97;;;;;;;5.78;100.00;61419.56;5111530;28;20433;-74
2022/04/20 09:15:28;;;;;;;24.43;17.03;;;;;;;5.83;100.00;61424.94;5111411;28;20447;-74
2022/04/20 09:17:57;;;;;;;29.60;18.33;;;;;;;5.67;100.00;61409.84;5111142;28;20456;-73
2022/04/20 09:20:24;;;;;;;24.97;17.17;;;;;;;5.80;100.00;61423.69;5111559;28;20565;-72
2022/04/20 09:23:01;;;;;;;28.37;18.07;;;;;;;5.91;100.00;61430.94;5111250;28;20545;-72
2022/04/20 09:25:33;;;;;;;38.90;23.60;;;;;;;6.23;100.00;61472.09;5111510;28;20452;-73
2022/04/20 09:28:00;;;;;;;97.23;49.70;;;;;;;6.38;100.00;61485.03;5111135;28;20455;-72
2022/04/20 09:30:33;;;;;;;69.23;36.73;;;;;;;6.30;100.00;61479.03;5111007;28;21002;-73
2022/04/20 09:33:02;;;;;;;24.97;16.37;;;;;;;6.02;100.00;61444.13;5111678;28;20892;-72
2022/04/20 09:35:29;;;;;;;24.07;14.87;;;;;;;6.13;100.00;61453.31;5111625;28;20441;-74
2022/04/20 09:38:07;;;;;;;19.70;13.03;;;;;;;6.18;100.00;61461.19;5111376;28;20452;-74
2022/04/20 09:40:36;;;;;;;22.83;15.00;;;;;;;6.30;100.00;61479.56;5111495;28;20496;-73
2022/04/20 09:43:06;;;;;;;17.27;12.23;;;;;;;6.17;100.00;61463.16;5111056;28;20562;-74
2022/04/20 09:45:35;;;;;;;12.73;6.67;;;;;;;6.13;100.00;61458.38;5111022;28;20825;-73
2022/04/20 09:51:07;;;;;;;12.73;9.03;;;;;;;5.98;100.00;61440.91;5114333;28;20820;-72
2022/04/20 09:53:34;;;;;;;12.77;8.63;;;;;;;5.92;100.00;61437.03;5115138;28;20447;-73
2022/04/20 09:56:15;;;;;;;12.43;9.10;;;;;;;5.86;100.00;61428.13;5114806;28;20946;-72
2022/04/20 09:58:43;;;;;;;13.30;9.20;;;;;;;5.81;100.00;61420.25;5114816;28;20573;-73
2022/04/20 10:01:25;;;;;;;15.07;10.00;;;;;;;5.98;100.00;61440.91;5114897;28;20513;-72
2022/04/20 10:03:54;;;;;;;16.37;10.63;;;;;;;5.90;100.00;61432.38;5114646;28;20539;-72
2022/04/20 10:06:22;;;;;;;17.07;11.20;;;;;;;5.89;100.00;61428.78;5114910;28;20521;-72
2022/04/20 10:08:48;;;;;;;14.67;10.50;;;;;;;5.87;100.00;61431.72;5114728;28;20711;-72
2022/04/20 10:11:16;;;;;;;13.70;8.30;;;;;;;5.77;100.00;61418.50;5114636;28;20509;-74
2022/04/20 10:13:43;;;;;;;10.63;7.87;;;;;;;5.90;100.00;61429.84;5114576;27;20448;-73
2022/04/20 10:16:13;;;;;;;11.47;8.10;;;;;;;6.06;100.00;61448.91;5114530;28;20498;-73
2022/04/20 10:18:41;;;;;;;13.87;9.73;;;;;;;6.19;100.00;61464.75;5114185;28;20499;-72
2022/04/20 10:21:11;;;;;;;12.63;8.00;;;;;;;6.38;100.00;61479.97;5114356;28;21051;-73
2022/04/20 10:23:43;;;;;;;10.43;7.77;;;;;;;6.34;100.00;61478.25;5114296;28;20489;-72
2022/04/20 10:26:11;;;;;;;11.13;7.40;;;;;;;6.33;100.00;61480.22;5114876;28;20437;-74
2022/04/20 10:28:47;;;;;;;8.10;6.70;;;;;;;6.27;100.00;61468.25;5116978;28;20453;-72
2022/04/20 10:31:21;;;;;;;8.57;5.87;;;;;;;6.22;100.00;61465.44;5116424;28;20490;-72
2022/04/20 10:33:49;;;;;;;12.90;9.60;;;;;;;6.29;100.00;61470.38;5114546;28;20817;-72
2022/04/20 10:36:17;;;;;;;11.23;7.23;;;;;;;6.35;100.00;61476.78;5114725;28;20853;-72
2022/04/20 10:38:46;;;;;;;10.80;8.50;;;;;;;6.39;100.00;61486.09;5114001;28;20527;-73
2022/04/20 10:41:17;;;;;;;15.93;10.47;;;;;;;6.61;100.00;61510.09;5112839;28;20456;-73
2022/04/20 10:43:45;;;;;;;10.33;7.53;;;;;;;6.08;100.00;61448.00;5113926;28;20488;-72
2022/04/20 10:46:18;;;;;;;14.73;8.77;;;;;;;6.64;100.00;61510.25;5113815;28;20444;-72
2022/04/20 10:48:50;;;;;;;7.73;5.93;;;;;;;6.66;100.00;61512.91;5113821;28;20440;-72
2022/04/20 10:51:19;;;;;;;11.47;8.03;;;;;;;6.75;100.00;61519.44;5113978;28;20493;-72
2022/04/20 10:53:48;;;;;;;7.77;5.73;;;;;;;6.76;100.00;61525.59;5113427;28;20497;-72
2022/04/20 10:56:17;;;;;;;9.33;6.60;;;;;;;6.61;100.00;61507.56;5113916;28;20501;-72
2022/04/20 10:59:07;;;;;;;10.50;7.73;;;;;;;6.86;100.00;61538.78;5113855;28;20445;-72
2022/04/20 11:02:11;;;;;;;10.63;6.67;;;;;;;6.60;100.00;61503.44;5113342;28;20785;-73
2022/04/20 11:04:41;;;;;;;10.23;7.30;;;;;;;6.49;100.00;61494.22;5113478;28;20527;-73
2022/04/20 11:07:32;;;;;;;10.67;7.80;;;;;;;6.72;100.00;61518.78;5114296;28;20441;-75
2022/04/20 11:10:09;;;;;;;8.67;6.30;;;;;;;6.61;100.00;61507.03;5113437;28;20449;-73
2022/04/20 11:18:44;;;;;;;11.23;8.40;;;;;;;6.42;100.00;61489.31;5113370;28;21014;-73
2022/04/20 11:21:13;;;;;;;16.30;10.30;;;;;;;6.13;100.00;61455.84;5113670;28;20446;-72
2022/04/20 11:23:55;;;;;;;12.47;9.20;;;;;;;6.08;100.00;61453.03;5113396;28;20533;-73
2022/04/20 11:26:26;;;;;;;17.53;11.43;;;;;;;6.16;100.00;61462.09;5113511;28;20451;-73
2022/04/20 11:28:54;;;;;;;27.37;15.60;;;;;;;5.79;100.00;61423.16;5113207;28;20578;-73
2022/04/20 11:31:20;;;;;;;21.27;12.77;;;;;;;6.05;100.00;61449.84;5112875;28;20444;-73
2022/04/20 11:33:50;;;;;;;21.13;14.40;;;;;;;6.08;100.00;61453.03;5113064;28;20444;-74
2022/04/20 11:36:18;;;;;;;17.23;12.07;;;;;;;5.91;100.00;61433.47;5113415;28;20453;-74
2022/04/20 11:38:49;;;;;;;18.83;12.60;;;;;;;5.83;100.00;61422.41;5112938;28;20441;-73
2022/04/20 11:41:17;;;;;;;17.60;11.50;;;;;;;6.16;100.00;61461.56;5112980;28;20818;-74
2022/04/20 11:43:44;;;;;;;17.10;11.83;;;;;;;6.17;100.00;61463.16;5112730;28;21079;-73
2022/04/20 11:46:12;;;;;;;17.93;9.97;;;;;;;6.20;100.00;61465.84;5112912;28;20520;-73
2022/04/20 11:48:48;;;;;;;15.23;9.93;;;;;;;6.12;100.00;61457.31;5112721;28;20440;-73